createdAt,value
2019-02-18T00:00:09.921Z,10.40
2019-02-18T00:01:09.853Z,11.40
2019-02-18T00:02:10.646Z,10.30
2019-02-18T00:03:09.846Z,10.50
2019-02-18T00:04:09.842Z,10.10
2019-02-18T00:05:09.818Z,9.70
2019-02-18T00:06:09.859Z,10.30
2019-02-18T00:07:14.478Z,10.40
2019-02-18T00:08:10.772Z,9.50
2019-02-18T00:09:09.800Z,9.50
2019-02-18T00:10:09.821Z,10.40
2019-02-18T00:11:09.747Z,9.80
2019-02-18T00:12:09.800Z,10.00
2019-02-18T00:13:09.730Z,9.60
2019-02-18T00:14:09.756Z,10.20
2019-02-18T00:15:09.696Z,9.70
2019-02-18T00:16:09.675Z,10.30
2019-02-18T00:17:09.655Z,9.50
2019-02-18T00:18:09.683Z,10.30
2019-02-18T00:19:09.643Z,9.40
2019-02-18T00:20:09.622Z,10.50
2019-02-18T00:21:09.624Z,9.50
2019-02-18T00:22:09.614Z,9.70
2019-02-18T00:23:09.595Z,9.80
2019-02-18T00:24:09.614Z,9.70
2019-02-18T00:25:09.570Z,10.10
2019-02-18T00:26:09.560Z,10.10
2019-02-18T00:27:09.555Z,9.70
2019-02-18T00:28:09.548Z,9.40
2019-02-18T00:29:09.565Z,10.20
2019-02-18T00:30:09.517Z,9.80
2019-02-18T00:31:09.516Z,9.20
2019-02-18T00:32:09.497Z,9.30
2019-02-18T00:33:09.486Z,9.40
2019-02-18T00:34:09.482Z,9.60
2019-02-18T00:35:09.493Z,9.90
2019-02-18T00:36:09.464Z,10.10
2019-02-18T00:37:09.449Z,9.20
2019-02-18T00:38:09.432Z,10.60
2019-02-18T00:39:09.422Z,10.10
2019-02-18T00:40:09.407Z,9.90
2019-02-18T00:41:09.445Z,9.90
2019-02-18T00:42:09.398Z,9.80
2019-02-18T00:43:09.379Z,9.70
2019-02-18T00:44:09.367Z,10.20
2019-02-18T00:45:09.353Z,10.40
2019-02-18T00:46:09.342Z,9.80
2019-02-18T00:47:09.369Z,10.00
2019-02-18T00:48:09.335Z,10.30
2019-02-18T00:49:09.329Z,9.60
2019-02-18T00:50:09.309Z,9.30
2019-02-18T00:51:09.313Z,10.00
2019-02-18T00:52:09.385Z,9.90
2019-02-18T00:53:09.275Z,9.80
2019-02-18T00:54:09.263Z,9.20
2019-02-18T00:55:09.251Z,10.50
2019-02-18T00:56:09.240Z,9.10
2019-02-18T00:57:09.247Z,9.50
2019-02-18T00:58:09.213Z,9.70
2019-02-18T00:59:09.224Z,9.90
2019-02-18T01:00:09.202Z,9.50
2019-02-18T01:01:09.231Z,9.60
2019-02-18T01:02:09.176Z,9.80
2019-02-18T01:03:09.157Z,10.00
2019-02-18T01:04:09.148Z,10.20
2019-02-18T01:05:09.134Z,9.20
2019-02-18T01:06:09.122Z,10.60
2019-02-18T01:07:09.145Z,9.50
2019-02-18T01:08:09.105Z,9.90
2019-02-18T01:09:09.095Z,9.90
2019-02-18T01:10:09.086Z,9.40
2019-02-18T01:11:09.070Z,9.50
2019-02-18T01:12:09.088Z,10.20
2019-02-18T01:13:09.054Z,9.50
2019-02-18T01:14:09.039Z,9.80
2019-02-18T01:15:09.028Z,9.70
2019-02-18T01:16:09.028Z,9.60
2019-02-18T01:17:09.007Z,10.00
2019-02-18T01:18:09.026Z,9.20
2019-02-18T01:19:08.995Z,9.80
2019-02-18T01:20:08.978Z,9.50
2019-02-18T01:21:08.967Z,9.50
2019-02-18T01:22:08.957Z,10.00
2019-02-18T01:23:08.964Z,9.50
2019-02-18T01:24:08.955Z,9.90
2019-02-18T01:25:08.920Z,9.60
2019-02-18T01:26:08.910Z,10.80
2019-02-18T01:27:08.903Z,9.90
2019-02-18T01:28:08.900Z,10.10
2019-02-18T01:29:08.909Z,10.10
2019-02-18T01:30:08.866Z,10.00
2019-02-18T01:31:08.864Z,9.50
2019-02-18T01:32:08.852Z,9.70
2019-02-18T01:33:08.840Z,9.60
2019-02-18T01:34:08.865Z,10.20
2019-02-18T01:35:08.812Z,10.10
2019-02-18T01:36:08.803Z,9.50
2019-02-18T01:37:08.792Z,10.70
2019-02-18T01:38:08.781Z,9.80
2019-02-18T01:39:08.782Z,9.70
2019-02-18T01:40:08.796Z,9.90
2019-02-18T01:41:08.771Z,10.10
2019-02-18T01:42:08.742Z,9.30
2019-02-18T01:43:08.788Z,10.00
2019-02-18T01:44:08.717Z,9.90
2019-02-18T01:45:08.728Z,10.30
2019-02-18T01:46:08.725Z,10.40
2019-02-18T01:47:08.692Z,10.10
2019-02-18T01:48:08.767Z,9.70
2019-02-18T01:49:08.668Z,10.10
2019-02-18T01:50:08.651Z,10.30
2019-02-18T01:51:08.683Z,9.80
2019-02-18T01:52:08.645Z,9.80
2019-02-18T01:53:08.625Z,9.70
2019-02-18T01:54:08.614Z,9.40
2019-02-18T01:55:08.602Z,10.00
2019-02-18T01:56:08.610Z,9.70
2019-02-18T01:57:08.608Z,9.90
2019-02-18T01:58:08.570Z,9.90
2019-02-18T01:59:08.570Z,9.60
2019-02-18T02:00:08.554Z,10.50
2019-02-18T02:01:08.537Z,10.90
2019-02-18T02:02:08.549Z,10.60
2019-02-18T02:03:08.520Z,9.80
2019-02-18T02:04:08.512Z,11.20
2019-02-18T02:05:08.498Z,10.00
2019-02-18T02:06:08.512Z,10.90
2019-02-18T02:07:08.468Z,9.90
2019-02-18T02:08:08.468Z,10.20
2019-02-18T02:09:08.449Z,9.60
2019-02-18T02:10:08.450Z,10.10
2019-02-18T02:11:08.473Z,10.30
2019-02-18T02:12:08.427Z,10.00
2019-02-18T02:13:08.411Z,10.40
2019-02-18T02:14:08.426Z,10.70
2019-02-18T02:15:08.384Z,10.30
2019-02-18T02:16:08.377Z,10.70
2019-02-18T02:17:08.411Z,10.60
2019-02-18T02:18:08.361Z,10.40
2019-02-18T02:19:08.359Z,10.10
2019-02-18T02:20:08.391Z,10.00
2019-02-18T02:21:08.324Z,10.00
2019-02-18T02:22:08.314Z,10.30
2019-02-18T02:23:08.328Z,10.30
2019-02-18T02:24:08.298Z,10.80
2019-02-18T02:25:08.316Z,10.40
2019-02-18T02:26:08.274Z,10.20
2019-02-18T02:27:08.257Z,10.20
2019-02-18T02:28:08.252Z,9.80
2019-02-18T02:29:08.238Z,10.60
2019-02-18T02:30:08.230Z,9.60
2019-02-18T02:31:08.251Z,10.50
2019-02-18T02:32:08.231Z,9.80
2019-02-18T02:33:08.194Z,11.80
2019-02-18T02:34:08.189Z,10.00
2019-02-18T02:35:08.175Z,10.40
2019-02-18T02:36:08.165Z,10.80
2019-02-18T02:37:08.184Z,10.40
2019-02-18T02:38:08.324Z,10.10
2019-02-18T02:39:08.152Z,10.20
2019-02-18T02:40:08.120Z,9.80
2019-02-18T02:41:08.106Z,9.80
2019-02-18T02:42:08.874Z,9.70
2019-02-18T02:43:08.095Z,9.90
2019-02-18T02:44:08.102Z,10.00
2019-02-18T02:45:08.080Z,10.60
2019-02-18T02:46:08.059Z,9.60
2019-02-18T02:47:08.050Z,9.60
2019-02-18T02:48:08.036Z,9.70
2019-02-18T02:49:08.060Z,10.20
2019-02-18T02:50:08.041Z,10.20
2019-02-18T02:51:08.011Z,10.20
2019-02-18T02:52:07.989Z,10.10
2019-02-18T02:53:07.976Z,10.90
2019-02-18T02:54:07.988Z,9.30
2019-02-18T02:55:07.986Z,10.90
2019-02-18T02:56:07.950Z,10.50
2019-02-18T02:57:07.938Z,10.00
2019-02-18T02:58:07.930Z,9.80
2019-02-18T02:59:07.943Z,10.40
2019-02-18T03:00:07.929Z,10.00
2019-02-18T03:01:07.903Z,10.40
2019-02-18T03:02:07.895Z,10.00
2019-02-18T03:03:07.875Z,10.70
2019-02-18T03:04:07.871Z,10.80
2019-02-18T03:05:07.882Z,10.30
2019-02-18T03:06:07.836Z,10.90
2019-02-18T03:07:07.832Z,10.80
2019-02-18T03:08:19.537Z,11.50
2019-02-18T03:09:08.820Z,11.00
2019-02-18T03:10:07.835Z,10.70
2019-02-18T03:11:07.783Z,11.10
2019-02-18T03:12:07.770Z,12.10
2019-02-18T03:13:07.761Z,11.20
2019-02-18T03:14:07.748Z,11.40
2019-02-18T03:15:07.777Z,12.10
2019-02-18T03:16:07.745Z,11.70
2019-02-18T03:17:07.722Z,12.70
2019-02-18T03:18:07.711Z,11.70
2019-02-18T03:19:07.700Z,11.20
2019-02-18T03:20:07.696Z,11.60
2019-02-18T03:21:07.737Z,12.10
2019-02-18T03:22:07.672Z,12.20
2019-02-18T03:23:07.653Z,12.70
2019-02-18T03:24:07.645Z,12.30
2019-02-18T03:25:07.633Z,11.60
2019-02-18T03:26:07.627Z,11.10
2019-02-18T03:27:07.648Z,10.50
2019-02-18T03:28:07.610Z,11.30
2019-02-18T03:29:07.594Z,11.20
2019-02-18T03:30:07.591Z,11.50
2019-02-18T03:31:07.574Z,12.10
2019-02-18T03:32:07.580Z,11.80
2019-02-18T03:33:07.544Z,11.20
2019-02-18T03:34:07.546Z,11.40
2019-02-18T03:35:07.528Z,11.40
2019-02-18T03:36:07.518Z,11.60
2019-02-18T03:37:07.660Z,10.70
2019-02-18T03:38:07.496Z,11.30
2019-02-18T03:39:07.484Z,10.40
2019-02-18T03:40:07.484Z,10.60
2019-02-18T03:41:07.463Z,10.70
2019-02-18T03:42:07.484Z,10.80
2019-02-18T03:43:07.438Z,11.00
2019-02-18T03:44:07.427Z,10.70
2019-02-18T03:45:07.449Z,10.80
2019-02-18T03:46:07.411Z,11.60
2019-02-18T03:47:07.401Z,11.30
2019-02-18T03:48:07.411Z,10.70
2019-02-18T03:49:07.379Z,11.20
2019-02-18T03:50:07.367Z,11.30
2019-02-18T03:51:07.348Z,11.00
2019-02-18T03:52:07.337Z,11.50
2019-02-18T03:53:07.361Z,11.40
2019-02-18T03:54:07.325Z,10.80
2019-02-18T03:55:07.322Z,10.00
2019-02-18T03:56:07.297Z,11.40
2019-02-18T03:57:07.308Z,10.50
2019-02-18T03:58:07.276Z,9.80
2019-02-18T03:59:07.269Z,10.00
2019-02-18T04:00:07.284Z,10.30
2019-02-18T04:01:07.257Z,9.80
2019-02-18T04:02:07.243Z,10.80
2019-02-18T04:03:07.249Z,10.70
2019-02-18T04:04:07.208Z,10.20
2019-02-18T04:05:07.202Z,9.80
2019-02-18T04:06:07.186Z,10.40
2019-02-18T04:07:07.230Z,10.20
2019-02-18T04:08:07.173Z,10.30
2019-02-18T04:09:07.161Z,9.70
2019-02-18T04:10:07.143Z,10.20
2019-02-18T04:11:07.138Z,10.40
2019-02-18T04:12:07.139Z,9.80
2019-02-18T04:13:07.160Z,9.70
2019-02-18T04:14:07.106Z,10.00
2019-02-18T04:15:07.095Z,11.00
2019-02-18T04:16:07.078Z,9.70
2019-02-18T04:17:07.069Z,10.30
2019-02-18T04:18:07.060Z,10.40
2019-02-18T04:19:07.083Z,10.70
2019-02-18T04:20:07.051Z,9.70
2019-02-18T04:21:07.029Z,10.50
2019-02-18T04:22:07.023Z,9.30
2019-02-18T04:23:07.032Z,9.80
2019-02-18T04:24:06.992Z,9.90
2019-02-18T04:25:07.019Z,10.40
2019-02-18T04:26:06.974Z,9.40
2019-02-18T04:27:08.051Z,9.80
2019-02-18T04:28:06.948Z,10.60
2019-02-18T04:29:06.938Z,10.10
2019-02-18T04:30:06.960Z,10.50
2019-02-18T04:31:06.932Z,10.60
2019-02-18T04:32:06.910Z,10.00
2019-02-18T04:33:06.912Z,9.30
2019-02-18T04:34:06.893Z,9.40
2019-02-18T04:35:06.874Z,9.90
2019-02-18T04:36:06.898Z,9.90
2019-02-18T04:37:06.851Z,9.40
2019-02-18T04:38:06.843Z,9.90
2019-02-18T04:39:06.838Z,10.50
2019-02-18T04:40:06.836Z,10.90
2019-02-18T04:41:06.806Z,10.80
2019-02-18T04:42:06.820Z,9.70
2019-02-18T04:43:06.798Z,10.40
2019-02-18T04:44:06.809Z,10.00
2019-02-18T04:45:06.776Z,9.80
2019-02-18T04:46:06.814Z,9.70
2019-02-18T04:47:06.752Z,10.60
2019-02-18T04:48:06.749Z,10.40
2019-02-18T04:49:06.719Z,9.30
2019-02-18T04:50:06.709Z,9.90
2019-02-18T04:51:06.714Z,9.90
2019-02-18T04:52:06.721Z,9.80
2019-02-18T04:53:06.706Z,9.40
2019-02-18T04:54:06.707Z,10.10
2019-02-18T04:55:06.668Z,10.10
2019-02-18T04:56:06.648Z,10.10
2019-02-18T04:57:06.664Z,9.80
2019-02-18T04:58:06.633Z,9.60
2019-02-18T04:59:06.630Z,9.60
2019-02-18T05:00:08.527Z,10.20
2019-02-18T05:01:06.590Z,10.60
2019-02-18T05:02:06.652Z,10.30
2019-02-18T05:03:06.590Z,9.90
2019-02-18T05:04:06.564Z,10.10
2019-02-18T05:05:06.552Z,9.70
2019-02-18T05:06:06.549Z,10.10
2019-02-18T05:07:06.531Z,9.80
2019-02-18T05:08:06.541Z,9.90
2019-02-18T05:09:06.511Z,9.90
2019-02-18T05:10:06.494Z,9.90
2019-02-18T05:11:06.494Z,9.90
2019-02-18T05:12:06.515Z,10.20
2019-02-18T05:13:06.468Z,10.80
2019-02-18T05:14:06.457Z,9.90
2019-02-18T05:15:06.470Z,10.00
2019-02-18T05:16:06.437Z,10.30
2019-02-18T05:17:06.532Z,9.90
2019-02-18T05:18:06.440Z,9.00
2019-02-18T05:19:06.420Z,9.50
2019-02-18T05:20:06.418Z,10.00
2019-02-18T05:21:06.380Z,10.20
2019-02-18T05:22:06.368Z,9.50
2019-02-18T05:23:06.386Z,9.90
2019-02-18T05:24:06.382Z,9.60
2019-02-18T05:25:06.346Z,9.50
2019-02-18T05:26:06.332Z,9.80
2019-02-18T05:27:06.314Z,10.10
2019-02-18T05:28:14.367Z,10.00
2019-02-18T05:29:06.292Z,10.50
2019-02-18T05:30:06.314Z,10.20
2019-02-18T05:31:06.274Z,9.60
2019-02-18T05:32:06.271Z,10.30
2019-02-18T05:33:06.254Z,9.70
2019-02-18T05:34:06.246Z,10.10
2019-02-18T05:35:06.264Z,9.60
2019-02-18T05:36:06.223Z,10.90
2019-02-18T05:37:06.207Z,9.80
2019-02-18T05:38:06.195Z,10.00
2019-02-18T05:39:16.969Z,10.20
2019-02-18T05:40:07.205Z,9.90
2019-02-18T05:41:06.181Z,9.70
2019-02-18T05:42:06.164Z,9.50
2019-02-18T05:43:06.142Z,10.40
2019-02-18T05:44:06.136Z,9.00
2019-02-18T05:45:06.184Z,9.60
2019-02-18T05:46:08.564Z,10.00
2019-02-18T05:47:06.107Z,10.10
2019-02-18T05:48:06.101Z,9.20
2019-02-18T05:49:06.078Z,8.30
2019-02-18T05:50:06.069Z,10.30
2019-02-18T05:51:06.089Z,9.60
2019-02-18T05:52:06.053Z,10.20
2019-02-18T05:53:06.037Z,10.90
2019-02-18T05:54:06.024Z,9.60
2019-02-18T05:55:06.036Z,10.00
2019-02-18T05:56:06.074Z,9.90
2019-02-18T05:57:06.003Z,9.70
2019-02-18T05:58:05.988Z,9.90
2019-02-18T05:59:05.971Z,9.50
2019-02-18T06:00:05.964Z,9.90
2019-02-18T06:01:05.962Z,10.00
2019-02-18T06:02:06.004Z,9.90
2019-02-18T06:03:05.939Z,10.40
2019-02-18T06:04:05.926Z,9.60
2019-02-18T06:05:05.911Z,9.90
2019-02-18T06:06:05.898Z,9.50
2019-02-18T06:07:05.917Z,9.60
2019-02-18T06:08:05.878Z,10.40
2019-02-18T06:09:05.877Z,9.70
2019-02-18T06:10:05.863Z,10.50
2019-02-18T06:11:05.852Z,10.50
2019-02-18T06:12:05.844Z,10.00
2019-02-18T06:13:05.851Z,10.10
2019-02-18T06:14:05.819Z,9.20
2019-02-18T06:15:05.810Z,10.40
2019-02-18T06:16:05.799Z,10.00
2019-02-18T06:17:05.784Z,9.90
2019-02-18T06:18:05.799Z,9.60
2019-02-18T06:19:05.767Z,9.10
2019-02-18T06:20:05.754Z,10.60
2019-02-18T06:21:05.765Z,9.60
2019-02-18T06:22:05.738Z,9.90
2019-02-18T06:23:05.807Z,9.70
2019-02-18T06:24:05.716Z,9.70
2019-02-18T06:25:05.704Z,9.70
2019-02-18T06:26:05.687Z,10.10
2019-02-18T06:27:05.679Z,9.50
2019-02-18T06:28:05.700Z,10.10
2019-02-18T06:29:05.664Z,10.00
2019-02-18T06:30:05.700Z,9.30
2019-02-18T06:31:05.643Z,8.40
2019-02-18T06:32:05.628Z,9.90
2019-02-18T06:33:05.624Z,9.30
2019-02-18T06:34:05.613Z,9.50
2019-02-18T06:35:05.602Z,9.70
2019-02-18T06:36:05.623Z,9.70
2019-02-18T06:37:05.573Z,9.00
2019-02-18T06:38:05.563Z,9.90
2019-02-18T06:39:05.552Z,9.40
2019-02-18T06:40:05.549Z,9.50
2019-02-18T06:41:05.539Z,9.60
2019-02-18T06:42:05.569Z,10.10
2019-02-18T06:43:05.518Z,9.40
2019-02-18T06:44:05.506Z,10.10
2019-02-18T06:45:05.491Z,8.40
2019-02-18T06:46:05.480Z,9.70
2019-02-18T06:47:05.475Z,9.80
2019-02-18T06:48:05.508Z,8.80
2019-02-18T06:49:05.464Z,9.90
2019-02-18T06:50:05.458Z,9.60
2019-02-18T06:51:05.427Z,9.20
2019-02-18T06:52:05.419Z,9.50
2019-02-18T06:53:05.440Z,9.70
2019-02-18T06:54:05.400Z,9.90
2019-02-18T06:55:05.389Z,10.60
2019-02-18T06:56:05.377Z,9.50
2019-02-18T06:57:05.360Z,9.10
2019-02-18T06:58:05.354Z,9.70
2019-02-18T06:59:05.372Z,10.00
2019-02-18T07:00:05.333Z,10.10
2019-02-18T07:01:05.327Z,9.30
2019-02-18T07:02:05.313Z,9.70
2019-02-18T07:03:05.304Z,9.20
2019-02-18T07:04:05.291Z,9.30
2019-02-18T07:05:05.307Z,9.70
2019-02-18T07:06:05.360Z,10.00
2019-02-18T07:07:05.261Z,9.60
2019-02-18T07:08:05.257Z,9.80
2019-02-18T07:09:05.235Z,9.70
2019-02-18T07:10:05.257Z,10.00
2019-02-18T07:11:05.211Z,9.50
2019-02-18T07:12:05.202Z,11.40
2019-02-18T07:13:05.203Z,9.70
2019-02-18T07:14:05.185Z,9.60
2019-02-18T07:15:05.178Z,10.80
2019-02-18T07:16:05.192Z,10.20
2019-02-18T07:17:05.162Z,9.50
2019-02-18T07:18:05.142Z,9.30
2019-02-18T07:19:05.131Z,9.80
2019-02-18T07:20:05.119Z,10.10
2019-02-18T07:21:05.137Z,9.60
2019-02-18T07:22:05.104Z,9.70
2019-02-18T07:23:05.085Z,10.80
2019-02-18T07:24:05.085Z,11.30
2019-02-18T07:25:05.118Z,9.70
2019-02-18T07:26:05.067Z,10.00
2019-02-18T07:27:05.066Z,10.10
2019-02-18T07:28:05.044Z,9.50
2019-02-18T07:29:05.022Z,9.90
2019-02-18T07:30:05.010Z,10.00
2019-02-18T07:31:05.028Z,9.80
2019-02-18T07:32:05.066Z,10.20
2019-02-18T07:33:04.982Z,10.00
2019-02-18T07:34:04.974Z,10.00
2019-02-18T07:35:04.957Z,10.40
2019-02-18T07:36:04.971Z,10.10
2019-02-18T07:37:04.942Z,9.90
2019-02-18T07:38:04.936Z,10.10
2019-02-18T07:39:04.926Z,10.40
2019-02-18T07:40:04.904Z,10.20
2019-02-18T07:41:04.915Z,10.10
2019-02-18T07:42:04.924Z,10.30
2019-02-18T07:43:04.865Z,9.90
2019-02-18T07:44:04.901Z,9.80
2019-02-18T07:45:04.861Z,9.60
2019-02-18T07:46:04.859Z,11.10
2019-02-18T07:47:04.836Z,10.30
2019-02-18T07:48:04.893Z,9.70
2019-02-18T07:49:04.803Z,10.80
2019-02-18T07:50:04.823Z,10.60
2019-02-18T07:51:04.786Z,9.50
2019-02-18T07:52:04.779Z,10.30
2019-02-18T07:53:04.763Z,10.40
2019-02-18T07:54:04.746Z,9.90
2019-02-18T07:55:04.742Z,10.00
2019-02-18T07:56:04.928Z,9.90
2019-02-18T07:57:04.769Z,9.40
2019-02-18T07:58:04.712Z,9.90
2019-02-18T07:59:04.701Z,9.90
2019-02-18T08:00:04.691Z,9.80
2019-02-18T08:01:04.678Z,10.50
2019-02-18T08:02:04.666Z,10.20
2019-02-18T08:03:04.678Z,10.10
2019-02-18T08:04:04.643Z,10.40
2019-02-18T08:05:04.653Z,10.50
2019-02-18T08:06:04.627Z,10.20
2019-02-18T08:07:04.608Z,10.40
2019-02-18T08:08:04.647Z,9.90
2019-02-18T08:09:04.600Z,9.80
2019-02-18T08:10:11.858Z,10.00
2019-02-18T08:11:05.571Z,10.00
2019-02-18T08:12:04.562Z,10.50
2019-02-18T08:13:04.568Z,10.90
2019-02-18T08:14:04.600Z,10.80
2019-02-18T08:15:04.526Z,10.90
2019-02-18T08:16:04.514Z,10.60
2019-02-18T08:17:04.509Z,10.20
2019-02-18T08:18:04.500Z,10.70
2019-02-18T08:19:04.513Z,10.80
2019-02-18T08:20:04.486Z,10.30
2019-02-18T08:21:04.461Z,10.30
2019-02-18T08:22:04.449Z,10.30
2019-02-18T08:23:04.462Z,9.80
2019-02-18T08:24:04.606Z,9.10
2019-02-18T08:25:04.456Z,10.40
2019-02-18T08:26:04.434Z,10.20
2019-02-18T08:27:04.400Z,10.40
2019-02-18T08:28:04.387Z,10.30
2019-02-18T08:29:04.382Z,10.00
2019-02-18T08:30:04.404Z,10.30
2019-02-18T08:31:04.359Z,10.00
2019-02-18T08:32:04.350Z,9.80
2019-02-18T08:33:04.335Z,10.30
2019-02-18T08:34:04.319Z,10.20
2019-02-18T08:35:04.318Z,9.50
2019-02-18T08:36:04.321Z,10.50
2019-02-18T08:37:04.311Z,9.60
2019-02-18T08:38:04.288Z,10.50
2019-02-18T08:39:04.267Z,10.50
2019-02-18T08:40:04.255Z,10.00
2019-02-18T08:41:04.285Z,10.30
2019-02-18T08:42:04.242Z,10.30
2019-02-18T08:43:04.232Z,10.50
2019-02-18T08:44:04.244Z,9.50
2019-02-18T08:45:04.214Z,10.50
2019-02-18T08:46:04.224Z,11.10
2019-02-18T08:47:04.184Z,10.30
2019-02-18T08:48:04.172Z,10.20
2019-02-18T08:49:04.168Z,10.50
2019-02-18T08:50:04.163Z,10.40
2019-02-18T08:51:04.218Z,10.30
2019-02-18T08:52:04.135Z,10.80
2019-02-18T08:53:04.123Z,11.90
2019-02-18T08:54:04.109Z,11.10
2019-02-18T08:55:04.104Z,10.90
2019-02-18T08:56:04.096Z,11.10
2019-02-18T08:57:04.104Z,10.50
2019-02-18T08:58:04.064Z,10.20
2019-02-18T08:59:04.077Z,10.30
2019-02-18T09:00:04.063Z,10.50
2019-02-18T09:01:04.040Z,10.00
2019-02-18T09:02:04.143Z,9.80
2019-02-18T09:03:04.021Z,10.20
2019-02-18T09:04:04.048Z,10.20
2019-02-18T09:05:04.021Z,10.30
2019-02-18T09:06:04.012Z,10.10
2019-02-18T09:07:03.974Z,10.20
2019-02-18T09:08:03.983Z,10.00
2019-02-18T09:09:04.016Z,10.00
2019-02-18T09:10:03.944Z,10.90
2019-02-18T09:11:03.933Z,10.40
2019-02-18T09:12:03.932Z,10.20
2019-02-18T09:13:03.918Z,10.40
2019-02-18T09:14:03.901Z,10.40
2019-02-18T09:15:03.928Z,9.70
2019-02-18T09:16:03.882Z,10.30
2019-02-18T09:17:03.865Z,9.90
2019-02-18T09:18:03.853Z,10.00
2019-02-18T09:19:03.856Z,10.50
2019-02-18T09:20:03.833Z,9.80
2019-02-18T09:21:03.895Z,10.10
2019-02-18T09:22:03.817Z,10.60
2019-02-18T09:23:03.824Z,10.20
2019-02-18T09:24:03.798Z,10.20
2019-02-18T09:25:03.783Z,10.30
2019-02-18T09:26:03.804Z,10.40
2019-02-18T09:27:03.807Z,10.40
2019-02-18T09:28:03.756Z,10.20
2019-02-18T09:29:03.743Z,10.00
2019-02-18T09:30:03.730Z,10.00
2019-02-18T09:31:03.719Z,10.00
2019-02-18T09:32:03.925Z,10.40
2019-02-18T09:33:03.707Z,10.30
2019-02-18T09:34:03.697Z,10.20
2019-02-18T09:35:03.686Z,10.70
2019-02-18T09:36:03.674Z,10.40
2019-02-18T09:37:03.657Z,10.70
2019-02-18T09:38:03.677Z,10.20
2019-02-18T09:39:03.640Z,10.30
2019-02-18T09:40:03.626Z,10.60
2019-02-18T09:41:03.624Z,10.20
2019-02-18T09:42:03.612Z,10.40
2019-02-18T09:43:03.617Z,10.00
2019-02-18T09:44:03.608Z,10.50
2019-02-18T09:45:03.582Z,10.20
2019-02-18T09:46:03.570Z,10.40
2019-02-18T09:47:03.596Z,10.00
2019-02-18T09:48:03.564Z,10.40
2019-02-18T09:49:03.535Z,10.30
2019-02-18T09:50:03.572Z,10.50
2019-02-18T09:51:03.510Z,10.00
2019-02-18T09:52:03.503Z,10.20
2019-02-18T09:53:03.533Z,10.00
2019-02-18T09:54:03.486Z,9.90
2019-02-18T09:55:03.514Z,10.50
2019-02-18T09:56:03.465Z,10.00
2019-02-18T09:57:03.450Z,9.70
2019-02-18T09:58:03.442Z,10.30
2019-02-18T09:59:03.436Z,10.00
2019-02-18T10:00:03.423Z,9.60
2019-02-18T10:01:03.430Z,9.90
2019-02-18T10:02:03.401Z,10.30
2019-02-18T10:03:03.396Z,10.60
2019-02-18T10:04:03.375Z,10.60
2019-02-18T10:05:03.404Z,10.50
2019-02-18T10:06:03.432Z,10.50
2019-02-18T10:07:03.365Z,10.40
2019-02-18T10:08:03.343Z,10.00
2019-02-18T10:09:03.323Z,9.20
2019-02-18T10:10:04.769Z,10.20
2019-02-18T10:11:03.302Z,10.20
2019-02-18T10:12:03.313Z,10.00
2019-02-18T10:13:03.322Z,10.00
2019-02-18T10:14:03.309Z,9.80
2019-02-18T10:15:03.261Z,9.80
2019-02-18T10:16:03.253Z,9.80
2019-02-18T10:17:03.255Z,9.50
2019-02-18T10:18:03.241Z,9.30
2019-02-18T10:19:03.266Z,9.10
2019-02-18T10:20:03.216Z,9.40
2019-02-18T10:21:03.221Z,9.50
2019-02-18T10:22:03.204Z,9.50
2019-02-18T10:23:03.176Z,9.90
2019-02-18T10:24:03.166Z,9.50
2019-02-18T10:25:03.190Z,9.60
2019-02-18T10:26:03.169Z,8.70
2019-02-18T10:27:03.148Z,9.60
2019-02-18T10:28:03.132Z,9.50
2019-02-18T10:29:03.115Z,9.60
2019-02-18T10:30:03.114Z,9.40
2019-02-18T10:31:03.131Z,9.70
2019-02-18T10:32:03.090Z,9.40
2019-02-18T10:33:03.079Z,9.00
2019-02-18T10:34:03.063Z,9.90
2019-02-18T10:35:03.093Z,10.20
2019-02-18T10:36:03.069Z,9.30
2019-02-18T10:37:03.092Z,9.90
2019-02-18T10:38:03.048Z,9.50
2019-02-18T10:39:03.014Z,9.60
2019-02-18T10:40:03.005Z,9.50
2019-02-18T10:41:06.863Z,9.60
2019-02-18T10:42:02.985Z,9.80
2019-02-18T10:43:02.969Z,9.50
2019-02-18T10:44:02.962Z,9.40
2019-02-18T10:45:02.955Z,9.20
2019-02-18T10:46:02.998Z,9.30
2019-02-18T10:47:02.928Z,9.50
2019-02-18T10:48:02.916Z,9.60
2019-02-18T10:49:02.908Z,10.00
2019-02-18T10:50:02.900Z,9.80
2019-02-18T10:51:02.893Z,9.20
2019-02-18T10:52:02.948Z,8.70
2019-02-18T10:53:02.868Z,9.60
2019-02-18T10:54:02.864Z,9.00
2019-02-18T10:55:02.843Z,9.00
2019-02-18T10:56:02.831Z,9.50
2019-02-18T10:57:02.841Z,9.70
2019-02-18T10:58:02.841Z,9.00
2019-02-18T10:59:02.825Z,8.50
2019-02-18T11:00:02.798Z,9.40
2019-02-18T11:01:02.775Z,8.70
2019-02-18T11:02:02.799Z,8.60
2019-02-18T11:03:02.793Z,8.50
2019-02-18T11:04:02.750Z,9.10
2019-02-18T11:05:02.738Z,9.30
2019-02-18T11:06:02.723Z,8.50
2019-02-18T11:07:02.739Z,9.30
2019-02-18T11:08:02.705Z,8.80
2019-02-18T11:09:02.733Z,9.30
2019-02-18T11:10:02.688Z,8.50
2019-02-18T11:11:02.677Z,8.40
2019-02-18T11:12:02.666Z,9.20
2019-02-18T11:13:02.647Z,8.70
2019-02-18T11:14:02.686Z,8.90
2019-02-18T11:15:02.632Z,8.70
2019-02-18T11:16:02.617Z,8.90
2019-02-18T11:17:02.610Z,8.30
2019-02-18T11:18:02.605Z,8.10
2019-02-18T11:19:02.584Z,8.00
2019-02-18T11:20:02.606Z,8.60
2019-02-18T11:21:02.580Z,8.60
2019-02-18T11:22:02.559Z,8.50
2019-02-18T11:23:02.548Z,8.40
2019-02-18T11:24:02.538Z,8.60
2019-02-18T11:25:02.525Z,9.00
2019-02-18T11:26:02.539Z,8.60
2019-02-18T11:27:02.505Z,8.50
2019-02-18T11:28:02.489Z,8.50
2019-02-18T11:29:02.490Z,9.00
2019-02-18T11:30:02.481Z,8.30
2019-02-18T11:31:02.496Z,8.50
2019-02-18T11:32:02.455Z,8.60
2019-02-18T11:33:02.438Z,8.00
2019-02-18T11:34:02.426Z,8.40
2019-02-18T11:35:02.458Z,8.00
2019-02-18T11:36:02.443Z,8.20
2019-02-18T11:37:02.396Z,7.70
2019-02-18T11:38:02.386Z,8.10
2019-02-18T11:39:02.389Z,7.90
2019-02-18T11:40:02.367Z,8.50
2019-02-18T11:41:02.361Z,8.20
2019-02-18T11:42:02.381Z,7.70
2019-02-18T11:43:02.367Z,7.60
2019-02-18T11:44:02.364Z,8.30
2019-02-18T11:45:02.320Z,7.90
2019-02-18T11:46:02.311Z,7.60
2019-02-18T11:47:02.292Z,8.40
2019-02-18T11:48:02.317Z,8.20
2019-02-18T11:49:02.490Z,7.70
2019-02-18T11:50:02.268Z,7.30
2019-02-18T11:51:02.294Z,7.60
2019-02-18T11:52:02.238Z,8.20
2019-02-18T11:53:02.230Z,7.60
2019-02-18T11:54:02.243Z,7.50
2019-02-18T11:55:02.251Z,8.20
2019-02-18T11:56:02.212Z,8.20
2019-02-18T11:57:02.330Z,8.20
2019-02-18T11:58:02.174Z,7.60
2019-02-18T11:59:02.194Z,7.90
2019-02-18T12:00:02.151Z,7.90
2019-02-18T12:01:02.147Z,7.90
2019-02-18T12:02:02.133Z,7.30
2019-02-18T12:03:06.820Z,8.10
2019-02-18T12:04:03.119Z,7.90
2019-02-18T12:05:02.092Z,7.80
2019-02-18T12:06:02.140Z,7.80
2019-02-18T12:07:03.041Z,8.00
2019-02-18T12:08:02.068Z,8.50
2019-02-18T12:09:02.114Z,7.70
2019-02-18T12:10:02.047Z,7.80
2019-02-18T12:11:02.060Z,7.90
2019-02-18T12:12:02.050Z,8.40
2019-02-18T12:13:02.046Z,8.20
2019-02-18T12:14:02.007Z,8.60
2019-02-18T12:15:02.029Z,8.00
2019-02-18T12:16:01.993Z,7.80
2019-02-18T12:17:01.985Z,8.30
2019-02-18T12:18:01.991Z,8.00
2019-02-18T12:19:01.984Z,8.10
2019-02-18T12:20:01.938Z,8.30
2019-02-18T12:21:01.930Z,7.90
2019-02-18T12:22:01.967Z,7.80
2019-02-18T12:23:01.932Z,7.90
2019-02-18T12:24:01.890Z,8.20
2019-02-18T12:25:01.887Z,8.10
2019-02-18T12:26:01.877Z,8.00
2019-02-18T12:27:01.867Z,7.20
2019-02-18T12:28:01.853Z,8.90
2019-02-18T12:29:01.863Z,8.70
2019-02-18T12:30:01.895Z,7.60
2019-02-18T12:31:01.836Z,8.00
2019-02-18T12:32:01.924Z,8.00
2019-02-18T12:33:01.805Z,7.50
2019-02-18T12:34:01.791Z,7.90
2019-02-18T12:35:01.779Z,7.80
2019-02-18T12:36:01.767Z,7.30
2019-02-18T12:37:01.780Z,7.10
2019-02-18T12:38:01.744Z,7.20
2019-02-18T12:39:01.781Z,7.80
2019-02-18T12:40:01.730Z,8.00
2019-02-18T12:41:01.709Z,7.10
2019-02-18T12:42:01.714Z,7.40
2019-02-18T12:43:01.722Z,7.50
2019-02-18T12:44:01.679Z,7.80
2019-02-18T12:45:01.672Z,7.00
2019-02-18T12:46:01.692Z,7.70
2019-02-18T12:47:01.651Z,7.40
2019-02-18T12:48:01.639Z,7.60
2019-02-18T12:49:01.624Z,7.90
2019-02-18T12:50:01.625Z,7.90
2019-02-18T12:51:01.599Z,7.10
2019-02-18T12:52:01.619Z,7.40
2019-02-18T12:53:01.589Z,7.70
2019-02-18T12:54:04.992Z,7.60
2019-02-18T12:55:01.623Z,7.10
2019-02-18T12:56:01.551Z,7.90
2019-02-18T12:57:01.541Z,7.00
2019-02-18T12:58:01.532Z,7.40
2019-02-18T12:59:01.532Z,7.10
2019-02-18T13:00:01.634Z,7.00
2019-02-18T13:01:01.514Z,7.30
2019-02-18T13:02:01.489Z,7.10
2019-02-18T13:03:01.470Z,7.00
2019-02-18T13:04:01.466Z,7.20
2019-02-18T13:05:01.484Z,6.60
2019-02-18T13:06:01.447Z,7.50